sensor_id;sensor_type;location;lat;lon;timestamp;P1;durP1;ratioP1;P2;durP2;ratioP2
48263;SDS011;34086;51.076;13.722;2023-04-25T00:00:14;5.43;;;4.15;;
48263;SDS011;34086;51.076;13.722;2023-04-25T00:01:15;5.90;;;4.60;;
48263;SDS011;34086;51.076;13.722;2023-04-25T00:02:16;5.15;;;4.40;;
48263;SDS011;34086;51.076;13.722;2023-04-25T00:03:17;6.55;;;4.90;;
48263;SDS011;34086;51.076;13.722;2023-04-25T00:04:18;6.28;;;4.70;;
48263;SDS011;34086;51.076;13.722;2023-04-25T00:05:19;5.65;;;4.43;;
48263;SDS011;34086;51.076;13.722;2023-04-25T00:06:20;5.50;;;4.60;;
48263;SDS011;34086;51.076;13.722;2023-04-25T00:07:21;6.78;;;4.75;;
48263;SDS011;34086;51.076;13.722;2023-04-25T00:08:22;7.47;;;5.10;;
48263;SDS011;34086;51.076;13.722;2023-04-25T00:09:22;6.60;;;5.00;;
48263;SDS011;34086;51.076;13.722;2023-04-25T00:10:23;6.72;;;5.72;;
48263;SDS011;34086;51.076;13.722;2023-04-25T00:11:23;7.07;;;5.32;;
48263;SDS011;34086;51.076;13.722;2023-04-25T00:12:24;7.15;;;4.97;;
48263;SDS011;34086;51.076;13.722;2023-04-25T00:13:25;6.70;;;5.40;;
48263;SDS011;34086;51.076;13.722;2023-04-25T00:14:26;7.30;;;5.35;;
48263;SDS011;34086;51.076;13.722;2023-04-25T00:15:27;6.40;;;5.10;;
48263;SDS011;34086;51.076;13.722;2023-04-25T00:16:30;7.32;;;5.30;;
48263;SDS011;34086;51.076;13.722;2023-04-25T00:17:33;7.35;;;5.03;;
48263;SDS011;34086;51.076;13.722;2023-04-25T00:18:34;7.88;;;5.47;;
48263;SDS011;34086;51.076;13.722;2023-04-25T00:19:36;7.30;;;5.30;;
48263;SDS011;34086;51.076;13.722;2023-04-25T00:20:37;7.30;;;5.38;;
48263;SDS011;34086;51.076;13.722;2023-04-25T00:21:38;7.90;;;5.85;;
48263;SDS011;34086;51.076;13.722;2023-04-25T00:22:40;8.27;;;5.90;;
48263;SDS011;34086;51.076;13.722;2023-04-25T00:23:41;8.85;;;6.28;;
48263;SDS011;34086;51.076;13.722;2023-04-25T00:24:41;6.88;;;5.57;;
48263;SDS011;34086;51.076;13.722;2023-04-25T00:25:42;7.40;;;5.32;;
48263;SDS011;34086;51.076;13.722;2023-04-25T00:26:43;7.18;;;5.60;;
48263;SDS011;34086;51.076;13.722;2023-04-25T00:27:43;6.63;;;4.78;;
48263;SDS011;34086;51.076;13.722;2023-04-25T00:28:44;6.15;;;5.07;;
48263;SDS011;34086;51.076;13.722;2023-04-25T00:29:45;6.90;;;5.40;;
48263;SDS011;34086;51.076;13.722;2023-04-25T00:30:45;8.88;;;5.70;;
48263;SDS011;34086;51.076;13.722;2023-04-25T00:31:46;7.53;;;5.78;;
48263;SDS011;34086;51.076;13.722;2023-04-25T00:32:46;6.28;;;5.47;;
48263;SDS011;34086;51.076;13.722;2023-04-25T00:33:47;6.85;;;5.10;;
48263;SDS011;34086;51.076;13.722;2023-04-25T00:34:48;6.78;;;5.78;;
48263;SDS011;34086;51.076;13.722;2023-04-25T00:35:48;7.53;;;5.38;;
48263;SDS011;34086;51.076;13.722;2023-04-25T00:36:49;5.50;;;4.90;;
48263;SDS011;34086;51.076;13.722;2023-04-25T00:37:50;7.75;;;5.50;;
48263;SDS011;34086;51.076;13.722;2023-04-25T00:38:50;6.53;;;5.57;;
48263;SDS011;34086;51.076;13.722;2023-04-25T00:39:52;7.35;;;5.65;;
48263;SDS011;34086;51.076;13.722;2023-04-25T00:40:54;7.47;;;5.57;;
48263;SDS011;34086;51.076;13.722;2023-04-25T00:41:55;6.53;;;5.47;;
48263;SDS011;34086;51.076;13.722;2023-04-25T00:42:57;5.85;;;5.22;;
48263;SDS011;34086;51.076;13.722;2023-04-25T00:43:58;6.88;;;5.40;;
48263;SDS011;34086;51.076;13.722;2023-04-25T00:45:00;6.78;;;5.07;;
48263;SDS011;34086;51.076;13.722;2023-04-25T00:46:01;7.20;;;5.30;;
48263;SDS011;34086;51.076;13.722;2023-04-25T00:47:02;7.85;;;5.28;;
48263;SDS011;34086;51.076;13.722;2023-04-25T00:48:03;6.80;;;5.32;;
48263;SDS011;34086;51.076;13.722;2023-04-25T00:49:04;6.82;;;4.97;;
48263;SDS011;34086;51.076;13.722;2023-04-25T00:50:05;6.40;;;5.00;;
48263;SDS011;34086;51.076;13.722;2023-04-25T00:51:06;7.20;;;5.20;;
48263;SDS011;34086;51.076;13.722;2023-04-25T00:52:07;6.63;;;5.22;;
48263;SDS011;34086;51.076;13.722;2023-04-25T00:53:08;6.45;;;5.30;;
48263;SDS011;34086;51.076;13.722;2023-04-25T00:54:10;7.05;;;5.40;;
48263;SDS011;34086;51.076;13.722;2023-04-25T00:55:14;6.13;;;5.32;;
48263;SDS011;34086;51.076;13.722;2023-04-25T00:56:16;6.35;;;5.40;;
48263;SDS011;34086;51.076;13.722;2023-04-25T00:57:16;6.75;;;5.57;;
48263;SDS011;34086;51.076;13.722;2023-04-25T00:58:19;8.13;;;5.68;;
48263;SDS011;34086;51.076;13.722;2023-04-25T00:59:20;6.82;;;5.60;;
48263;SDS011;34086;51.076;13.722;2023-04-25T01:00:21;7.63;;;6.15;;
48263;SDS011;34086;51.076;13.722;2023-04-25T01:01:22;6.80;;;5.93;;
48263;SDS011;34086;51.076;13.722;2023-04-25T01:02:22;7.78;;;6.30;;
48263;SDS011;34086;51.076;13.722;2023-04-25T01:03:23;6.70;;;5.80;;
48263;SDS011;34086;51.076;13.722;2023-04-25T01:04:24;7.53;;;6.35;;
48263;SDS011;34086;51.076;13.722;2023-04-25T01:05:27;7.05;;;5.78;;
48263;SDS011;34086;51.076;13.722;2023-04-25T01:06:27;7.00;;;5.70;;
48263;SDS011;34086;51.076;13.722;2023-04-25T01:07:28;7.18;;;5.68;;
48263;SDS011;34086;51.076;13.722;2023-04-25T01:08:30;6.57;;;5.63;;
48263;SDS011;34086;51.076;13.722;2023-04-25T01:09:31;6.53;;;5.80;;
48263;SDS011;34086;51.076;13.722;2023-04-25T01:10:32;8.20;;;5.82;;
48263;SDS011;34086;51.076;13.722;2023-04-25T01:11:32;8.93;;;6.50;;
48263;SDS011;34086;51.076;13.722;2023-04-25T01:12:33;7.95;;;5.65;;
48263;SDS011;34086;51.076;13.722;2023-04-25T01:13:34;7.63;;;6.18;;
48263;SDS011;34086;51.076;13.722;2023-04-25T01:14:35;7.35;;;6.07;;
48263;SDS011;34086;51.076;13.722;2023-04-25T01:15:35;7.78;;;6.03;;
48263;SDS011;34086;51.076;13.722;2023-04-25T01:16:36;7.38;;;6.00;;
48263;SDS011;34086;51.076;13.722;2023-04-25T01:17:38;8.68;;;6.25;;
48263;SDS011;34086;51.076;13.722;2023-04-25T01:18:41;8.88;;;6.15;;
48263;SDS011;34086;51.076;13.722;2023-04-25T01:19:42;8.20;;;6.30;;
48263;SDS011;34086;51.076;13.722;2023-04-25T01:20:43;8.20;;;6.20;;
48263;SDS011;34086;51.076;13.722;2023-04-25T01:21:45;7.63;;;5.95;;
48263;SDS011;34086;51.076;13.722;2023-04-25T01:22:46;8.15;;;6.80;;
48263;SDS011;34086;51.076;13.722;2023-04-25T01:23:47;9.27;;;7.30;;
48263;SDS011;34086;51.076;13.722;2023-04-25T01:24:48;9.98;;;7.53;;
48263;SDS011;34086;51.076;13.722;2023-04-25T01:25:49;10.77;;;6.95;;
48263;SDS011;34086;51.076;13.722;2023-04-25T01:26:50;8.52;;;6.80;;
48263;SDS011;34086;51.076;13.722;2023-04-25T01:27:56;10.43;;;7.05;;
48263;SDS011;34086;51.076;13.722;2023-04-25T01:28:58;9.75;;;7.25;;
48263;SDS011;34086;51.076;13.722;2023-04-25T01:30:00;9.60;;;7.50;;
48263;SDS011;34086;51.076;13.722;2023-04-25T01:31:01;10.23;;;7.68;;
48263;SDS011;34086;51.076;13.722;2023-04-25T01:32:02;8.40;;;6.68;;
48263;SDS011;34086;51.076;13.722;2023-04-25T01:33:03;8.80;;;6.85;;
48263;SDS011;34086;51.076;13.722;2023-04-25T01:34:05;9.55;;;7.05;;
48263;SDS011;34086;51.076;13.722;2023-04-25T01:35:07;9.45;;;6.78;;
48263;SDS011;34086;51.076;13.722;2023-04-25T01:36:09;8.60;;;6.57;;
48263;SDS011;34086;51.076;13.722;2023-04-25T01:37:10;8.88;;;6.50;;
48263;SDS011;34086;51.076;13.722;2023-04-25T01:38:11;9.05;;;6.78;;
48263;SDS011;34086;51.076;13.722;2023-04-25T01:39:12;9.27;;;6.95;;
48263;SDS011;34086;51.076;13.722;2023-04-25T01:40:13;9.25;;;7.25;;
48263;SDS011;34086;51.076;13.722;2023-04-25T01:41:14;8.95;;;6.93;;
48263;SDS011;34086;51.076;13.722;2023-04-25T01:42:15;8.45;;;6.50;;
48263;SDS011;34086;51.076;13.722;2023-04-25T01:43:15;8.82;;;7.00;;
48263;SDS011;34086;51.076;13.722;2023-04-25T01:44:16;10.02;;;7.18;;
48263;SDS011;34086;51.076;13.722;2023-04-25T01:45:17;10.93;;;7.50;;
48263;SDS011;34086;51.076;13.722;2023-04-25T01:46:18;9.55;;;7.40;;
48263;SDS011;34086;51.076;13.722;2023-04-25T01:47:18;8.30;;;6.70;;
48263;SDS011;34086;51.076;13.722;2023-04-25T01:48:19;10.45;;;7.30;;
48263;SDS011;34086;51.076;13.722;2023-04-25T01:49:21;8.32;;;6.40;;
48263;SDS011;34086;51.076;13.722;2023-04-25T01:50:22;8.90;;;6.80;;
48263;SDS011;34086;51.076;13.722;2023-04-25T01:51:23;9.45;;;7.95;;
48263;SDS011;34086;51.076;13.722;2023-04-25T01:52:24;8.40;;;6.68;;
48263;SDS011;34086;51.076;13.722;2023-04-25T01:53:25;8.40;;;6.57;;
48263;SDS011;34086;51.076;13.722;2023-04-25T01:54:26;10.50;;;7.32;;
48263;SDS011;34086;51.076;13.722;2023-04-25T01:55:27;8.70;;;6.60;;
48263;SDS011;34086;51.076;13.722;2023-04-25T01:56:49;9.52;;;6.85;;
48263;SDS011;34086;51.076;13.722;2023-04-25T01:57:51;9.40;;;7.18;;
48263;SDS011;34086;51.076;13.722;2023-04-25T01:58:55;9.77;;;7.20;;
48263;SDS011;34086;51.076;13.722;2023-04-25T02:00:14;9.18;;;7.18;;
48263;SDS011;34086;51.076;13.722;2023-04-25T02:01:15;8.88;;;6.80;;
48263;SDS011;34086;51.076;13.722;2023-04-25T02:02:22;10.10;;;7.30;;
48263;SDS011;34086;51.076;13.722;2023-04-25T02:03:24;8.18;;;7.05;;
48263;SDS011;34086;51.076;13.722;2023-04-25T02:04:25;8.52;;;7.03;;
48263;SDS011;34086;51.076;13.722;2023-04-25T02:05:26;8.93;;;6.97;;
48263;SDS011;34086;51.076;13.722;2023-04-25T02:06:27;9.52;;;6.80;;
48263;SDS011;34086;51.076;13.722;2023-04-25T02:07:30;9.70;;;7.13;;
48263;SDS011;34086;51.076;13.722;2023-04-25T02:08:32;10.73;;;7.65;;
48263;SDS011;34086;51.076;13.722;2023-04-25T02:09:32;10.05;;;7.43;;
48263;SDS011;34086;51.076;13.722;2023-04-25T02:10:37;9.90;;;7.68;;
48263;SDS011;34086;51.076;13.722;2023-04-25T02:11:50;8.95;;;7.18;;
48263;SDS011;34086;51.076;13.722;2023-04-25T02:13:13;12.55;;;7.45;;
48263;SDS011;34086;51.076;13.722;2023-04-25T02:14:30;11.18;;;7.75;;
48263;SDS011;34086;51.076;13.722;2023-04-25T02:15:41;10.13;;;7.40;;
48263;SDS011;34086;51.076;13.722;2023-04-25T02:16:49;11.70;;;8.13;;
48263;SDS011;34086;51.076;13.722;2023-04-25T02:17:51;10.35;;;7.45;;
48263;SDS011;34086;51.076;13.722;2023-04-25T02:18:54;10.63;;;7.15;;
48263;SDS011;34086;51.076;13.722;2023-04-25T02:19:55;13.23;;;8.02;;
48263;SDS011;34086;51.076;13.722;2023-04-25T02:20:55;11.50;;;8.43;;
48263;SDS011;34086;51.076;13.722;2023-04-25T02:21:56;14.15;;;7.95;;
48263;SDS011;34086;51.076;13.722;2023-04-25T02:22:57;12.85;;;7.97;;
48263;SDS011;34086;51.076;13.722;2023-04-25T02:23:57;14.10;;;8.43;;
48263;SDS011;34086;51.076;13.722;2023-04-25T02:24:58;13.80;;;8.20;;
48263;SDS011;34086;51.076;13.722;2023-04-25T02:25:59;11.65;;;7.82;;
48263;SDS011;34086;51.076;13.722;2023-04-25T02:26:59;12.52;;;8.70;;
48263;SDS011;34086;51.076;13.722;2023-04-25T02:28:00;12.35;;;8.18;;
48263;SDS011;34086;51.076;13.722;2023-04-25T02:29:01;10.60;;;8.32;;
48263;SDS011;34086;51.076;13.722;2023-04-25T02:30:01;13.07;;;8.05;;
48263;SDS011;34086;51.076;13.722;2023-04-25T02:31:02;12.10;;;8.35;;
48263;SDS011;34086;51.076;13.722;2023-04-25T02:32:04;12.10;;;8.73;;
48263;SDS011;34086;51.076;13.722;2023-04-25T02:33:05;13.23;;;8.45;;
48263;SDS011;34086;51.076;13.722;2023-04-25T02:34:05;15.13;;;8.50;;
48263;SDS011;34086;51.076;13.722;2023-04-25T02:35:09;12.23;;;8.80;;
48263;SDS011;34086;51.076;13.722;2023-04-25T02:36:10;13.48;;;8.27;;
48263;SDS011;34086;51.076;13.722;2023-04-25T02:37:10;14.00;;;8.52;;
48263;SDS011;34086;51.076;13.722;2023-04-25T02:38:11;12.52;;;9.02;;
48263;SDS011;34086;51.076;13.722;2023-04-25T02:39:13;11.82;;;9.00;;
48263;SDS011;34086;51.076;13.722;2023-04-25T02:40:14;13.23;;;8.90;;
48263;SDS011;34086;51.076;13.722;2023-04-25T02:41:15;15.02;;;8.73;;
48263;SDS011;34086;51.076;13.722;2023-04-25T02:42:15;13.50;;;9.07;;
48263;SDS011;34086;51.076;13.722;2023-04-25T02:43:16;14.35;;;9.07;;
48263;SDS011;34086;51.076;13.722;2023-04-25T02:44:16;13.18;;;8.68;;
48263;SDS011;34086;51.076;13.722;2023-04-25T02:45:18;12.85;;;8.77;;
48263;SDS011;34086;51.076;13.722;2023-04-25T02:46:19;13.98;;;9.10;;
48263;SDS011;34086;51.076;13.722;2023-04-25T02:47:20;13.02;;;8.68;;
48263;SDS011;34086;51.076;13.722;2023-04-25T02:48:21;12.60;;;8.45;;
48263;SDS011;34086;51.076;13.722;2023-04-25T02:49:22;14.00;;;9.15;;
48263;SDS011;34086;51.076;13.722;2023-04-25T02:50:23;12.65;;;8.55;;
48263;SDS011;34086;51.076;13.722;2023-04-25T02:51:24;14.25;;;9.00;;
48263;SDS011;34086;51.076;13.722;2023-04-25T02:52:25;15.88;;;8.77;;
48263;SDS011;34086;51.076;13.722;2023-04-25T02:53:34;11.80;;;8.15;;
48263;SDS011;34086;51.076;13.722;2023-04-25T02:54:34;13.30;;;8.82;;
48263;SDS011;34086;51.076;13.722;2023-04-25T02:55:36;12.55;;;8.50;;
48263;SDS011;34086;51.076;13.722;2023-04-25T02:56:38;14.95;;;9.13;;
48263;SDS011;34086;51.076;13.722;2023-04-25T02:57:44;11.65;;;8.32;;
48263;SDS011;34086;51.076;13.722;2023-04-25T02:58:47;11.48;;;8.10;;
48263;SDS011;34086;51.076;13.722;2023-04-25T02:59:48;13.82;;;7.75;;
48263;SDS011;34086;51.076;13.722;2023-04-25T03:00:49;11.60;;;8.00;;
48263;SDS011;34086;51.076;13.722;2023-04-25T03:01:50;11.13;;;7.40;;
48263;SDS011;34086;51.076;13.722;2023-04-25T03:02:51;9.80;;;7.40;;
48263;SDS011;34086;51.076;13.722;2023-04-25T03:03:52;9.95;;;8.02;;
48263;SDS011;34086;51.076;13.722;2023-04-25T03:04:52;10.43;;;8.00;;
48263;SDS011;34086;51.076;13.722;2023-04-25T03:05:53;10.10;;;7.88;;
48263;SDS011;34086;51.076;13.722;2023-04-25T03:06:59;11.38;;;8.15;;
48263;SDS011;34086;51.076;13.722;2023-04-25T03:07:59;9.88;;;7.38;;
48263;SDS011;34086;51.076;13.722;2023-04-25T03:09:01;10.30;;;7.40;;
48263;SDS011;34086;51.076;13.722;2023-04-25T03:10:02;10.63;;;7.47;;
48263;SDS011;34086;51.076;13.722;2023-04-25T03:11:07;10.30;;;7.68;;
48263;SDS011;34086;51.076;13.722;2023-04-25T03:12:08;9.50;;;7.45;;
48263;SDS011;34086;51.076;13.722;2023-04-25T03:13:09;10.40;;;7.60;;
48263;SDS011;34086;51.076;13.722;2023-04-25T03:14:11;12.75;;;8.15;;
48263;SDS011;34086;51.076;13.722;2023-04-25T03:15:12;13.88;;;9.32;;
48263;SDS011;34086;51.076;13.722;2023-04-25T03:16:12;13.07;;;9.00;;
48263;SDS011;34086;51.076;13.722;2023-04-25T03:17:13;12.68;;;8.90;;
48263;SDS011;34086;51.076;13.722;2023-04-25T03:18:13;13.35;;;8.38;;
48263;SDS011;34086;51.076;13.722;2023-04-25T03:19:14;13.15;;;8.57;;
48263;SDS011;34086;51.076;13.722;2023-04-25T03:20:16;13.60;;;8.93;;
48263;SDS011;34086;51.076;13.722;2023-04-25T03:21:17;12.43;;;8.60;;
48263;SDS011;34086;51.076;13.722;2023-04-25T03:22:18;14.23;;;8.80;;
48263;SDS011;34086;51.076;13.722;2023-04-25T03:23:18;12.68;;;8.85;;
48263;SDS011;34086;51.076;13.722;2023-04-25T03:24:19;13.85;;;9.18;;
48263;SDS011;34086;51.076;13.722;2023-04-25T03:25:21;13.05;;;9.38;;
48263;SDS011;34086;51.076;13.722;2023-04-25T03:26:22;12.15;;;9.05;;
48263;SDS011;34086;51.076;13.722;2023-04-25T03:27:23;13.52;;;9.10;;
48263;SDS011;34086;51.076;13.722;2023-04-25T03:28:25;12.15;;;8.70;;
48263;SDS011;34086;51.076;13.722;2023-04-25T03:29:32;14.23;;;9.15;;
48263;SDS011;34086;51.076;13.722;2023-04-25T03:30:36;12.88;;;9.68;;
48263;SDS011;34086;51.076;13.722;2023-04-25T03:31:37;11.30;;;8.50;;
48263;SDS011;34086;51.076;13.722;2023-04-25T03:32:37;13.07;;;9.30;;
48263;SDS011;34086;51.076;13.722;2023-04-25T03:33:38;14.38;;;9.45;;
48263;SDS011;34086;51.076;13.722;2023-04-25T03:34:39;14.73;;;9.45;;
48263;SDS011;34086;51.076;13.722;2023-04-25T03:35:40;12.40;;;8.98;;
48263;SDS011;34086;51.076;13.722;2023-04-25T03:36:41;13.02;;;9.05;;
48263;SDS011;34086;51.076;13.722;2023-04-25T03:37:41;12.27;;;8.30;;
48263;SDS011;34086;51.076;13.722;2023-04-25T03:38:46;13.00;;;8.90;;
48263;SDS011;34086;51.076;13.722;2023-04-25T03:39:49;10.68;;;8.77;;
48263;SDS011;34086;51.076;13.722;2023-04-25T03:40:51;10.77;;;8.50;;
48263;SDS011;34086;51.076;13.722;2023-04-25T03:41:56;14.23;;;9.30;;
48263;SDS011;34086;51.076;13.722;2023-04-25T03:42:56;11.48;;;8.77;;
48263;SDS011;34086;51.076;13.722;2023-04-25T03:43:57;12.05;;;9.02;;
48263;SDS011;34086;51.076;13.722;2023-04-25T03:44:58;11.70;;;8.40;;
48263;SDS011;34086;51.076;13.722;2023-04-25T03:45:58;12.88;;;9.13;;
48263;SDS011;34086;51.076;13.722;2023-04-25T03:46:59;12.73;;;8.73;;
48263;SDS011;34086;51.076;13.722;2023-04-25T03:48:00;11.68;;;8.88;;
48263;SDS011;34086;51.076;13.722;2023-04-25T03:49:02;13.10;;;9.60;;
48263;SDS011;34086;51.076;13.722;2023-04-25T03:50:21;12.32;;;8.98;;
48263;SDS011;34086;51.076;13.722;2023-04-25T03:51:22;12.77;;;8.45;;
48263;SDS011;34086;51.076;13.722;2023-04-25T03:52:23;13.27;;;8.48;;
48263;SDS011;34086;51.076;13.722;2023-04-25T03:53:23;13.40;;;8.90;;
48263;SDS011;34086;51.076;13.722;2023-04-25T03:54:56;15.07;;;8.90;;
48263;SDS011;34086;51.076;13.722;2023-04-25T03:55:59;11.55;;;9.13;;
48263;SDS011;34086;51.076;13.722;2023-04-25T03:56:59;14.55;;;8.82;;
48263;SDS011;34086;51.076;13.722;2023-04-25T03:58:02;14.45;;;9.57;;
48263;SDS011;34086;51.076;13.722;2023-04-25T03:59:03;12.68;;;9.45;;
48263;SDS011;34086;51.076;13.722;2023-04-25T04:00:04;14.93;;;9.82;;
48263;SDS011;34086;51.076;13.722;2023-04-25T04:01:13;13.18;;;9.80;;
48263;SDS011;34086;51.076;13.722;2023-04-25T04:02:14;12.82;;;9.38;;
48263;SDS011;34086;51.076;13.722;2023-04-25T04:03:15;15.18;;;9.63;;
48263;SDS011;34086;51.076;13.722;2023-04-25T04:04:16;12.45;;;9.35;;
48263;SDS011;34086;51.076;13.722;2023-04-25T04:05:17;13.27;;;9.20;;
48263;SDS011;34086;51.076;13.722;2023-04-25T04:06:24;12.10;;;9.13;;
48263;SDS011;34086;51.076;13.722;2023-04-25T04:07:31;12.68;;;9.20;;
48263;SDS011;34086;51.076;13.722;2023-04-25T04:08:34;14.40;;;8.55;;
48263;SDS011;34086;51.076;13.722;2023-04-25T04:09:35;11.70;;;9.15;;
48263;SDS011;34086;51.076;13.722;2023-04-25T04:10:40;12.30;;;8.90;;
48263;SDS011;34086;51.076;13.722;2023-04-25T04:11:42;11.32;;;8.80;;
48263;SDS011;34086;51.076;13.722;2023-04-25T04:12:42;13.70;;;9.52;;
48263;SDS011;34086;51.076;13.722;2023-04-25T04:13:44;14.52;;;9.73;;
48263;SDS011;34086;51.076;13.722;2023-04-25T04:14:45;13.73;;;9.40;;
48263;SDS011;34086;51.076;13.722;2023-04-25T04:15:46;14.50;;;10.15;;
48263;SDS011;34086;51.076;13.722;2023-04-25T04:16:47;13.23;;;9.45;;
48263;SDS011;34086;51.076;13.722;2023-04-25T04:17:48;17.10;;;10.70;;
48263;SDS011;34086;51.076;13.722;2023-04-25T04:18:48;16.00;;;10.57;;
48263;SDS011;34086;51.076;13.722;2023-04-25T04:19:49;16.40;;;10.70;;
48263;SDS011;34086;51.076;13.722;2023-04-25T04:20:52;15.15;;;9.80;;
48263;SDS011;34086;51.076;13.722;2023-04-25T04:21:53;15.13;;;9.82;;
48263;SDS011;34086;51.076;13.722;2023-04-25T04:22:54;15.23;;;9.85;;
48263;SDS011;34086;51.076;13.722;2023-04-25T04:23:56;12.45;;;9.13;;
48263;SDS011;34086;51.076;13.722;2023-04-25T04:24:58;14.98;;;10.05;;
48263;SDS011;34086;51.076;13.722;2023-04-25T04:26:17;14.73;;;10.10;;
48263;SDS011;34086;51.076;13.722;2023-04-25T04:27:26;14.40;;;9.43;;
48263;SDS011;34086;51.076;13.722;2023-04-25T04:28:41;15.23;;;10.10;;
48263;SDS011;34086;51.076;13.722;2023-04-25T04:31:26;18.02;;;9.93;;
48263;SDS011;34086;51.076;13.722;2023-04-25T04:32:26;13.50;;;9.73;;
48263;SDS011;34086;51.076;13.722;2023-04-25T04:33:30;14.73;;;10.13;;
48263;SDS011;34086;51.076;13.722;2023-04-25T04:34:34;16.17;;;10.45;;
48263;SDS011;34086;51.076;13.722;2023-04-25T04:35:36;14.25;;;10.57;;
48263;SDS011;34086;51.076;13.722;2023-04-25T04:36:36;15.50;;;9.02;;
48263;SDS011;34086;51.076;13.722;2023-04-25T04:37:37;14.13;;;10.02;;
48263;SDS011;34086;51.076;13.722;2023-04-25T04:38:39;19.10;;;10.20;;
48263;SDS011;34086;51.076;13.722;2023-04-25T04:39:41;14.88;;;10.43;;
48263;SDS011;34086;51.076;13.722;2023-04-25T04:40:51;15.65;;;11.07;;
48263;SDS011;34086;51.076;13.722;2023-04-25T04:42:00;14.48;;;10.25;;
48263;SDS011;34086;51.076;13.722;2023-04-25T04:43:28;14.02;;;9.90;;
48263;SDS011;34086;51.076;13.722;2023-04-25T04:44:48;18.02;;;10.18;;
48263;SDS011;34086;51.076;13.722;2023-04-25T04:46:11;15.77;;;9.48;;
48263;SDS011;34086;51.076;13.722;2023-04-25T04:47:31;15.05;;;9.88;;
48263;SDS011;34086;51.076;13.722;2023-04-25T04:49:10;14.90;;;9.10;;
48263;SDS011;34086;51.076;13.722;2023-04-25T04:50:31;12.80;;;8.63;;
48263;SDS011;34086;51.076;13.722;2023-04-25T04:51:49;12.65;;;9.38;;
48263;SDS011;34086;51.076;13.722;2023-04-25T04:53:26;11.52;;;8.88;;
48263;SDS011;34086;51.076;13.722;2023-04-25T04:54:29;12.98;;;8.90;;
48263;SDS011;34086;51.076;13.722;2023-04-25T04:55:49;16.50;;;9.10;;
48263;SDS011;34086;51.076;13.722;2023-04-25T04:57:25;10.98;;;8.13;;
48263;SDS011;34086;51.076;13.722;2023-04-25T04:58:49;13.27;;;7.80;;
48263;SDS011;34086;51.076;13.722;2023-04-25T05:00:11;17.42;;;8.93;;
48263;SDS011;34086;51.076;13.722;2023-04-25T05:01:35;12.02;;;7.95;;
48263;SDS011;34086;51.076;13.722;2023-04-25T05:02:43;12.60;;;8.65;;
48263;SDS011;34086;51.076;13.722;2023-04-25T05:04:02;12.32;;;8.32;;
48263;SDS011;34086;51.076;13.722;2023-04-25T05:05:35;13.52;;;8.55;;
48263;SDS011;34086;51.076;13.722;2023-04-25T05:06:59;12.57;;;7.97;;
48263;SDS011;34086;51.076;13.722;2023-04-25T05:08:17;11.73;;;7.70;;
48263;SDS011;34086;51.076;13.722;2023-04-25T05:09:38;9.40;;;7.68;;
48263;SDS011;34086;51.076;13.722;2023-04-25T05:10:58;11.45;;;7.80;;
48263;SDS011;34086;51.076;13.722;2023-04-25T05:12:13;11.18;;;7.30;;
48263;SDS011;34086;51.076;13.722;2023-04-25T05:13:23;13.30;;;7.22;;
48263;SDS011;34086;51.076;13.722;2023-04-25T05:14:42;12.02;;;7.40;;
48263;SDS011;34086;51.076;13.722;2023-04-25T05:16:01;11.10;;;7.43;;
48263;SDS011;34086;51.076;13.722;2023-04-25T05:17:19;12.25;;;7.85;;
48263;SDS011;34086;51.076;13.722;2023-04-25T05:18:40;13.13;;;7.38;;
48263;SDS011;34086;51.076;13.722;2023-04-25T05:20:00;12.93;;;7.70;;
48263;SDS011;34086;51.076;13.722;2023-04-25T05:21:30;11.27;;;7.32;;
48263;SDS011;34086;51.076;13.722;2023-04-25T05:22:50;11.32;;;7.60;;
48263;SDS011;34086;51.076;13.722;2023-04-25T05:24:05;14.05;;;7.85;;
48263;SDS011;34086;51.076;13.722;2023-04-25T05:25:24;9.88;;;7.35;;
48263;SDS011;34086;51.076;13.722;2023-04-25T05:26:33;10.13;;;7.13;;
48263;SDS011;34086;51.076;13.722;2023-04-25T05:27:48;10.27;;;7.28;;
48263;SDS011;34086;51.076;13.722;2023-04-25T05:29:04;10.18;;;7.32;;
48263;SDS011;34086;51.076;13.722;2023-04-25T05:30:24;10.77;;;7.00;;
48263;SDS011;34086;51.076;13.722;2023-04-25T05:31:44;8.97;;;6.83;;
48263;SDS011;34086;51.076;13.722;2023-04-25T05:32:48;10.30;;;6.72;;
48263;SDS011;34086;51.076;13.722;2023-04-25T05:33:48;12.68;;;7.10;;
48263;SDS011;34086;51.076;13.722;2023-04-25T05:34:50;11.48;;;7.00;;
48263;SDS011;34086;51.076;13.722;2023-04-25T05:35:59;9.77;;;6.43;;
48263;SDS011;34086;51.076;13.722;2023-04-25T05:37:01;11.82;;;6.47;;
48263;SDS011;34086;51.076;13.722;2023-04-25T05:38:02;12.45;;;7.60;;
48263;SDS011;34086;51.076;13.722;2023-04-25T05:39:21;9.02;;;6.90;;
48263;SDS011;34086;51.076;13.722;2023-04-25T05:40:40;10.45;;;7.47;;
48263;SDS011;34086;51.076;13.722;2023-04-25T05:42:12;10.77;;;7.03;;
48263;SDS011;34086;51.076;13.722;2023-04-25T05:43:30;10.88;;;7.07;;
48263;SDS011;34086;51.076;13.722;2023-04-25T05:44:42;12.25;;;7.50;;
48263;SDS011;34086;51.076;13.722;2023-04-25T05:45:52;10.55;;;7.70;;
48263;SDS011;34086;51.076;13.722;2023-04-25T05:47:17;12.25;;;7.45;;
48263;SDS011;34086;51.076;13.722;2023-04-25T05:48:37;13.25;;;8.00;;
48263;SDS011;34086;51.076;13.722;2023-04-25T05:49:55;14.18;;;7.65;;
48263;SDS011;34086;51.076;13.722;2023-04-25T05:51:14;11.57;;;7.65;;
48263;SDS011;34086;51.076;13.722;2023-04-25T05:52:24;11.52;;;7.88;;
48263;SDS011;34086;51.076;13.722;2023-04-25T05:53:36;12.75;;;8.25;;
48263;SDS011;34086;51.076;13.722;2023-04-25T05:54:36;12.57;;;8.32;;
48263;SDS011;34086;51.076;13.722;2023-04-25T05:55:38;12.77;;;8.50;;
48263;SDS011;34086;51.076;13.722;2023-04-25T05:56:53;15.75;;;8.73;;
48263;SDS011;34086;51.076;13.722;2023-04-25T05:57:53;14.57;;;8.43;;
48263;SDS011;34086;51.076;13.722;2023-04-25T05:58:54;12.77;;;8.75;;
48263;SDS011;34086;51.076;13.722;2023-04-25T05:59:55;13.60;;;8.70;;
48263;SDS011;34086;51.076;13.722;2023-04-25T06:00:58;15.55;;;8.90;;
48263;SDS011;34086;51.076;13.722;2023-04-25T06:01:59;14.68;;;8.98;;
48263;SDS011;34086;51.076;13.722;2023-04-25T06:03:01;12.20;;;8.75;;
48263;SDS011;34086;51.076;13.722;2023-04-25T06:04:02;15.80;;;9.35;;
48263;SDS011;34086;51.076;13.722;2023-04-25T06:05:02;17.15;;;8.98;;
48263;SDS011;34086;51.076;13.722;2023-04-25T06:06:03;15.23;;;9.10;;
48263;SDS011;34086;51.076;13.722;2023-04-25T06:07:04;13.27;;;8.60;;
48263;SDS011;34086;51.076;13.722;2023-04-25T06:08:06;12.55;;;9.40;;
48263;SDS011;34086;51.076;13.722;2023-04-25T06:09:06;14.07;;;9.20;;
48263;SDS011;34086;51.076;13.722;2023-04-25T06:10:07;13.73;;;9.20;;
48263;SDS011;34086;51.076;13.722;2023-04-25T06:11:08;15.50;;;9.38;;
48263;SDS011;34086;51.076;13.722;2023-04-25T06:12:09;15.43;;;8.90;;
48263;SDS011;34086;51.076;13.722;2023-04-25T06:13:09;16.90;;;9.20;;
48263;SDS011;34086;51.076;13.722;2023-04-25T06:14:11;15.75;;;9.38;;
48263;SDS011;34086;51.076;13.722;2023-04-25T06:15:18;16.17;;;9.52;;
48263;SDS011;34086;51.076;13.722;2023-04-25T06:16:20;14.10;;;9.60;;
48263;SDS011;34086;51.076;13.722;2023-04-25T06:17:21;17.10;;;9.80;;
48263;SDS011;34086;51.076;13.722;2023-04-25T06:18:23;14.85;;;9.52;;
48263;SDS011;34086;51.076;13.722;2023-04-25T06:19:24;15.25;;;9.60;;
48263;SDS011;34086;51.076;13.722;2023-04-25T06:20:24;16.05;;;9.80;;
48263;SDS011;34086;51.076;13.722;2023-04-25T06:21:27;15.07;;;9.55;;